64NY weather

CLOSED Hemlock Run Airport
Watkins Glen, New York, United States

Public forecast

Using degrees Fahrenheit for public forecast. Weather courtesy of forecast.io.

Closest aviation weather report (METAR) to Hemlock Run Airport

Closest report is Elmira Corning Regional Airport, 12.6 nm (23.3 km) S. Retrieved 2019/10/19 17:53 UTC (54 minutes ago):

KELM 191753Z 00000KT 10SM CLR 14/04 A3003 RMK AO2 SLP173 T01390044 10139 20011 58023

Closest aviation forecast (TAF) to Hemlock Run Airport

Closest forecast is Elmira Corning Regional Airport, 12.6 nm (23.3 km) S. Retrieved 2019/10/19 18:22 UTC (25 minutes ago):

TAF KELM 191720Z 1918/2018 VRB03KT P6SM SKC FM200800 VRB03KT 3SM BR BKN150 TEMPO 2009/2013 1/2SM FG BKN003 FM201300 18003KT P6SM BKN150